sensor_id;sensor_type;location;lat;lon;timestamp;P1;durP1;ratioP1;P2;durP2;ratioP2
16407;SDS011;8313;49.894;8.084;2023-05-20T00:01:59;2.63;;;2.43;;
16407;SDS011;8313;49.894;8.084;2023-05-20T00:04:24;3.43;;;2.87;;
16407;SDS011;8313;49.894;8.084;2023-05-20T00:06:50;6.20;;;3.23;;
16407;SDS011;8313;49.894;8.084;2023-05-20T00:09:16;2.63;;;2.43;;
16407;SDS011;8313;49.894;8.084;2023-05-20T00:11:41;2.60;;;2.33;;
16407;SDS011;8313;49.894;8.084;2023-05-20T00:14:07;3.13;;;2.93;;
16407;SDS011;8313;49.894;8.084;2023-05-20T00:16:33;3.70;;;3.40;;
16407;SDS011;8313;49.894;8.084;2023-05-20T00:18:58;3.00;;;2.70;;
16407;SDS011;8313;49.894;8.084;2023-05-20T00:21:24;2.70;;;2.50;;
16407;SDS011;8313;49.894;8.084;2023-05-20T00:23:50;3.40;;;2.50;;
16407;SDS011;8313;49.894;8.084;2023-05-20T00:26:16;4.40;;;2.77;;
16407;SDS011;8313;49.894;8.084;2023-05-20T00:28:43;4.20;;;2.70;;
16407;SDS011;8313;49.894;8.084;2023-05-20T00:31:09;3.07;;;2.70;;
16407;SDS011;8313;49.894;8.084;2023-05-20T00:33:35;2.57;;;2.37;;
16407;SDS011;8313;49.894;8.084;2023-05-20T00:36:01;2.50;;;2.30;;
16407;SDS011;8313;49.894;8.084;2023-05-20T00:38:26;2.60;;;2.20;;
16407;SDS011;8313;49.894;8.084;2023-05-20T00:40:52;2.20;;;2.10;;
16407;SDS011;8313;49.894;8.084;2023-05-20T00:43:17;2.80;;;2.60;;
16407;SDS011;8313;49.894;8.084;2023-05-20T00:45:45;4.03;;;2.90;;
16407;SDS011;8313;49.894;8.084;2023-05-20T00:48:11;4.27;;;2.63;;
16407;SDS011;8313;49.894;8.084;2023-05-20T00:50:37;2.50;;;2.30;;
16407;SDS011;8313;49.894;8.084;2023-05-20T00:53:04;2.60;;;2.40;;
16407;SDS011;8313;49.894;8.084;2023-05-20T00:55:30;2.67;;;2.47;;
16407;SDS011;8313;49.894;8.084;2023-05-20T00:57:56;4.10;;;2.23;;
16407;SDS011;8313;49.894;8.084;2023-05-20T01:00:22;2.83;;;2.60;;
16407;SDS011;8313;49.894;8.084;2023-05-20T01:02:48;3.53;;;2.60;;
16407;SDS011;8313;49.894;8.084;2023-05-20T01:05:14;3.13;;;2.83;;
16407;SDS011;8313;49.894;8.084;2023-05-20T01:07:40;2.67;;;2.33;;
16407;SDS011;8313;49.894;8.084;2023-05-20T01:10:06;3.10;;;2.33;;
16407;SDS011;8313;49.894;8.084;2023-05-20T01:12:44;3.80;;;2.97;;
16407;SDS011;8313;49.894;8.084;2023-05-20T01:15:13;2.83;;;2.50;;
16407;SDS011;8313;49.894;8.084;2023-05-20T01:17:43;2.80;;;2.43;;
16407;SDS011;8313;49.894;8.084;2023-05-20T01:20:11;2.87;;;2.67;;
16407;SDS011;8313;49.894;8.084;2023-05-20T01:22:48;2.63;;;2.43;;
16407;SDS011;8313;49.894;8.084;2023-05-20T01:25:18;2.77;;;2.57;;
16407;SDS011;8313;49.894;8.084;2023-05-20T01:27:44;4.20;;;3.07;;
16407;SDS011;8313;49.894;8.084;2023-05-20T01:30:11;3.07;;;2.80;;
16407;SDS011;8313;49.894;8.084;2023-05-20T01:32:40;3.17;;;2.87;;
16407;SDS011;8313;49.894;8.084;2023-05-20T01:35:08;3.00;;;2.53;;
16407;SDS011;8313;49.894;8.084;2023-05-20T01:37:38;4.03;;;3.73;;
16407;SDS011;8313;49.894;8.084;2023-05-20T01:40:09;3.20;;;2.90;;
16407;SDS011;8313;49.894;8.084;2023-05-20T01:42:36;3.10;;;2.80;;
16407;SDS011;8313;49.894;8.084;2023-05-20T01:45:04;3.80;;;2.80;;
16407;SDS011;8313;49.894;8.084;2023-05-20T01:47:30;8.87;;;3.60;;
16407;SDS011;8313;49.894;8.084;2023-05-20T01:49:56;4.90;;;2.90;;
16407;SDS011;8313;49.894;8.084;2023-05-20T01:52:22;4.30;;;2.90;;
16407;SDS011;8313;49.894;8.084;2023-05-20T01:54:47;3.40;;;2.53;;
16407;SDS011;8313;49.894;8.084;2023-05-20T01:57:18;2.60;;;2.40;;
16407;SDS011;8313;49.894;8.084;2023-05-20T01:59:45;3.53;;;2.47;;
16407;SDS011;8313;49.894;8.084;2023-05-20T02:02:11;3.90;;;3.03;;
16407;SDS011;8313;49.894;8.084;2023-05-20T02:04:37;2.93;;;2.73;;
16407;SDS011;8313;49.894;8.084;2023-05-20T02:07:04;4.57;;;3.07;;
16407;SDS011;8313;49.894;8.084;2023-05-20T02:09:30;6.27;;;2.97;;
16407;SDS011;8313;49.894;8.084;2023-05-20T02:11:56;6.00;;;2.70;;
16407;SDS011;8313;49.894;8.084;2023-05-20T02:14:21;2.70;;;2.33;;
16407;SDS011;8313;49.894;8.084;2023-05-20T02:16:47;4.80;;;3.27;;
16407;SDS011;8313;49.894;8.084;2023-05-20T02:19:13;3.37;;;3.17;;
16407;SDS011;8313;49.894;8.084;2023-05-20T02:21:43;2.80;;;2.60;;
16407;SDS011;8313;49.894;8.084;2023-05-20T02:24:11;3.57;;;3.27;;
16407;SDS011;8313;49.894;8.084;2023-05-20T02:26:37;3.90;;;3.07;;
16407;SDS011;8313;49.894;8.084;2023-05-20T02:29:02;3.37;;;3.07;;
16407;SDS011;8313;49.894;8.084;2023-05-20T02:31:28;3.30;;;3.00;;
16407;SDS011;8313;49.894;8.084;2023-05-20T02:33:53;3.03;;;2.80;;
16407;SDS011;8313;49.894;8.084;2023-05-20T02:36:19;2.83;;;2.63;;
16407;SDS011;8313;49.894;8.084;2023-05-20T02:38:45;3.60;;;3.30;;
16407;SDS011;8313;49.894;8.084;2023-05-20T02:41:11;4.87;;;3.13;;
16407;SDS011;8313;49.894;8.084;2023-05-20T02:43:36;10.63;;;3.20;;
16407;SDS011;8313;49.894;8.084;2023-05-20T02:46:03;2.57;;;2.37;;
16407;SDS011;8313;49.894;8.084;2023-05-20T02:48:28;2.90;;;2.70;;
16407;SDS011;8313;49.894;8.084;2023-05-20T02:50:54;3.27;;;3.07;;
16407;SDS011;8313;49.894;8.084;2023-05-20T02:53:20;3.37;;;2.63;;
16407;SDS011;8313;49.894;8.084;2023-05-20T02:55:46;3.53;;;2.83;;
16407;SDS011;8313;49.894;8.084;2023-05-20T02:58:12;2.83;;;2.63;;
16407;SDS011;8313;49.894;8.084;2023-05-20T03:00:38;3.60;;;3.10;;
16407;SDS011;8313;49.894;8.084;2023-05-20T03:03:07;3.90;;;3.00;;
16407;SDS011;8313;49.894;8.084;2023-05-20T03:05:34;3.53;;;3.23;;
16407;SDS011;8313;49.894;8.084;2023-05-20T03:08:11;3.00;;;2.70;;
16407;SDS011;8313;49.894;8.084;2023-05-20T03:10:37;3.13;;;2.83;;
16407;SDS011;8313;49.894;8.084;2023-05-20T03:13:04;2.70;;;2.50;;
16407;SDS011;8313;49.894;8.084;2023-05-20T03:15:34;2.93;;;2.60;;
16407;SDS011;8313;49.894;8.084;2023-05-20T03:18:04;3.03;;;2.83;;
16407;SDS011;8313;49.894;8.084;2023-05-20T03:20:30;3.13;;;2.90;;
16407;SDS011;8313;49.894;8.084;2023-05-20T03:23:03;3.30;;;3.00;;
16407;SDS011;8313;49.894;8.084;2023-05-20T03:25:30;3.20;;;2.80;;
16407;SDS011;8313;49.894;8.084;2023-05-20T03:27:55;3.77;;;2.80;;
16407;SDS011;8313;49.894;8.084;2023-05-20T03:30:23;4.03;;;2.73;;
16407;SDS011;8313;49.894;8.084;2023-05-20T03:32:49;4.63;;;2.87;;
16407;SDS011;8313;49.894;8.084;2023-05-20T03:35:15;4.30;;;3.03;;
16407;SDS011;8313;49.894;8.084;2023-05-20T03:37:41;3.17;;;2.87;;
16407;SDS011;8313;49.894;8.084;2023-05-20T03:40:07;3.90;;;3.00;;
16407;SDS011;8313;49.894;8.084;2023-05-20T03:42:37;3.90;;;2.77;;
16407;SDS011;8313;49.894;8.084;2023-05-20T03:45:04;3.03;;;2.73;;
16407;SDS011;8313;49.894;8.084;2023-05-20T03:47:35;4.77;;;3.20;;
16407;SDS011;8313;49.894;8.084;2023-05-20T03:50:01;2.80;;;2.57;;
16407;SDS011;8313;49.894;8.084;2023-05-20T03:52:28;3.20;;;2.90;;
16407;SDS011;8313;49.894;8.084;2023-05-20T03:54:54;3.17;;;2.90;;
16407;SDS011;8313;49.894;8.084;2023-05-20T03:57:21;3.13;;;2.83;;
16407;SDS011;8313;49.894;8.084;2023-05-20T03:59:47;3.33;;;3.13;;
16407;SDS011;8313;49.894;8.084;2023-05-20T04:02:13;2.90;;;2.57;;
16407;SDS011;8313;49.894;8.084;2023-05-20T04:04:38;3.33;;;3.03;;
16407;SDS011;8313;49.894;8.084;2023-05-20T04:07:07;8.67;;;3.77;;
16407;SDS011;8313;49.894;8.084;2023-05-20T04:09:36;4.43;;;3.17;;
16407;SDS011;8313;49.894;8.084;2023-05-20T04:12:03;3.57;;;3.27;;
16407;SDS011;8313;49.894;8.084;2023-05-20T04:14:30;5.00;;;3.60;;
16407;SDS011;8313;49.894;8.084;2023-05-20T04:16:58;5.10;;;3.00;;
16407;SDS011;8313;49.894;8.084;2023-05-20T04:19:23;4.13;;;2.90;;
16407;SDS011;8313;49.894;8.084;2023-05-20T04:21:52;3.00;;;2.80;;
16407;SDS011;8313;49.894;8.084;2023-05-20T04:24:18;3.87;;;2.87;;
16407;SDS011;8313;49.894;8.084;2023-05-20T04:26:49;3.47;;;2.90;;
16407;SDS011;8313;49.894;8.084;2023-05-20T04:29:16;2.90;;;2.70;;
16407;SDS011;8313;49.894;8.084;2023-05-20T04:31:44;3.07;;;2.87;;
16407;SDS011;8313;49.894;8.084;2023-05-20T04:34:10;4.33;;;4.03;;
16407;SDS011;8313;49.894;8.084;2023-05-20T04:36:36;2.87;;;2.67;;
16407;SDS011;8313;49.894;8.084;2023-05-20T04:39:03;4.00;;;3.40;;
16407;SDS011;8313;49.894;8.084;2023-05-20T04:41:29;3.50;;;3.20;;
16407;SDS011;8313;49.894;8.084;2023-05-20T04:43:55;6.10;;;3.70;;
16407;SDS011;8313;49.894;8.084;2023-05-20T04:46:25;5.10;;;4.20;;
16407;SDS011;8313;49.894;8.084;2023-05-20T04:48:51;4.17;;;3.50;;
16407;SDS011;8313;49.894;8.084;2023-05-20T04:51:18;2.80;;;2.60;;
16407;SDS011;8313;49.894;8.084;2023-05-20T04:53:44;4.03;;;3.40;;
16407;SDS011;8313;49.894;8.084;2023-05-20T04:56:10;3.20;;;3.00;;
16407;SDS011;8313;49.894;8.084;2023-05-20T04:58:36;5.30;;;3.80;;
16407;SDS011;8313;49.894;8.084;2023-05-20T05:01:02;3.97;;;3.00;;
16407;SDS011;8313;49.894;8.084;2023-05-20T05:03:28;3.37;;;3.07;;
16407;SDS011;8313;49.894;8.084;2023-05-20T05:05:55;3.33;;;3.03;;
16407;SDS011;8313;49.894;8.084;2023-05-20T05:08:22;3.57;;;3.20;;
16407;SDS011;8313;49.894;8.084;2023-05-20T05:10:49;4.80;;;4.33;;
16407;SDS011;8313;49.894;8.084;2023-05-20T05:13:15;4.07;;;3.60;;
16407;SDS011;8313;49.894;8.084;2023-05-20T05:15:41;4.20;;;2.90;;
16407;SDS011;8313;49.894;8.084;2023-05-20T05:18:07;4.93;;;3.67;;
16407;SDS011;8313;49.894;8.084;2023-05-20T05:20:34;3.37;;;3.10;;
16407;SDS011;8313;49.894;8.084;2023-05-20T05:23:00;5.43;;;3.63;;
16407;SDS011;8313;49.894;8.084;2023-05-20T05:25:26;4.63;;;3.30;;
16407;SDS011;8313;49.894;8.084;2023-05-20T05:27:52;6.37;;;3.63;;
16407;SDS011;8313;49.894;8.084;2023-05-20T05:30:20;4.13;;;3.80;;
16407;SDS011;8313;49.894;8.084;2023-05-20T05:32:49;3.53;;;3.20;;
16407;SDS011;8313;49.894;8.084;2023-05-20T05:35:15;3.43;;;3.10;;
16407;SDS011;8313;49.894;8.084;2023-05-20T05:37:41;4.17;;;3.77;;
16407;SDS011;8313;49.894;8.084;2023-05-20T05:40:07;4.00;;;3.20;;
16407;SDS011;8313;49.894;8.084;2023-05-20T05:42:33;4.33;;;3.40;;
16407;SDS011;8313;49.894;8.084;2023-05-20T05:44:59;4.23;;;3.93;;
16407;SDS011;8313;49.894;8.084;2023-05-20T05:47:25;3.80;;;3.50;;
16407;SDS011;8313;49.894;8.084;2023-05-20T05:49:56;3.93;;;3.53;;
16407;SDS011;8313;49.894;8.084;2023-05-20T05:52:24;4.27;;;3.83;;
16407;SDS011;8313;49.894;8.084;2023-05-20T05:54:50;6.80;;;4.00;;
16407;SDS011;8313;49.894;8.084;2023-05-20T05:57:16;3.70;;;3.40;;
16407;SDS011;8313;49.894;8.084;2023-05-20T05:59:42;4.97;;;4.47;;
16407;SDS011;8313;49.894;8.084;2023-05-20T06:02:08;4.40;;;3.57;;
16407;SDS011;8313;49.894;8.084;2023-05-20T06:04:34;4.67;;;3.50;;
16407;SDS011;8313;49.894;8.084;2023-05-20T06:07:00;6.40;;;4.40;;
16407;SDS011;8313;49.894;8.084;2023-05-20T06:09:26;7.33;;;4.20;;
16407;SDS011;8313;49.894;8.084;2023-05-20T06:11:53;4.33;;;3.73;;
16407;SDS011;8313;49.894;8.084;2023-05-20T06:14:19;4.47;;;4.00;;
16407;SDS011;8313;49.894;8.084;2023-05-20T06:16:45;4.50;;;4.10;;
16407;SDS011;8313;49.894;8.084;2023-05-20T06:19:11;4.43;;;4.03;;
16407;SDS011;8313;49.894;8.084;2023-05-20T06:21:36;4.40;;;4.00;;
16407;SDS011;8313;49.894;8.084;2023-05-20T06:24:03;4.30;;;3.90;;
16407;SDS011;8313;49.894;8.084;2023-05-20T06:26:30;4.77;;;4.00;;
16407;SDS011;8313;49.894;8.084;2023-05-20T06:28:56;5.20;;;4.33;;
16407;SDS011;8313;49.894;8.084;2023-05-20T06:31:22;5.03;;;4.13;;
16407;SDS011;8313;49.894;8.084;2023-05-20T06:33:48;5.87;;;3.57;;
16407;SDS011;8313;49.894;8.084;2023-05-20T06:36:14;4.60;;;4.20;;
16407;SDS011;8313;49.894;8.084;2023-05-20T06:38:41;8.80;;;3.73;;
16407;SDS011;8313;49.894;8.084;2023-05-20T06:41:06;3.80;;;3.50;;
16407;SDS011;8313;49.894;8.084;2023-05-20T06:43:32;5.00;;;4.57;;
16407;SDS011;8313;49.894;8.084;2023-05-20T06:46:03;4.57;;;4.00;;
16407;SDS011;8313;49.894;8.084;2023-05-20T06:48:38;4.77;;;4.30;;
16407;SDS011;8313;49.894;8.084;2023-05-20T06:51:08;4.17;;;3.77;;
16407;SDS011;8313;49.894;8.084;2023-05-20T06:53:34;4.60;;;4.20;;
16407;SDS011;8313;49.894;8.084;2023-05-20T06:56:01;4.80;;;3.70;;
16407;SDS011;8313;49.894;8.084;2023-05-20T06:58:27;5.17;;;4.13;;
16407;SDS011;8313;49.894;8.084;2023-05-20T07:00:55;5.17;;;4.67;;
16407;SDS011;8313;49.894;8.084;2023-05-20T07:03:21;6.50;;;4.40;;
16407;SDS011;8313;49.894;8.084;2023-05-20T07:05:47;5.30;;;4.80;;
16407;SDS011;8313;49.894;8.084;2023-05-20T07:08:14;6.30;;;5.00;;
16407;SDS011;8313;49.894;8.084;2023-05-20T07:10:40;6.10;;;4.60;;
16407;SDS011;8313;49.894;8.084;2023-05-20T07:13:07;5.87;;;5.37;;
16407;SDS011;8313;49.894;8.084;2023-05-20T07:15:32;5.20;;;4.47;;
16407;SDS011;8313;49.894;8.084;2023-05-20T07:17:58;5.87;;;5.37;;
16407;SDS011;8313;49.894;8.084;2023-05-20T07:20:24;4.53;;;4.13;;
16407;SDS011;8313;49.894;8.084;2023-05-20T07:22:51;4.70;;;4.30;;
16407;SDS011;8313;49.894;8.084;2023-05-20T07:25:22;5.30;;;4.63;;
16407;SDS011;8313;49.894;8.084;2023-05-20T07:27:48;4.90;;;4.40;;
16407;SDS011;8313;49.894;8.084;2023-05-20T07:30:14;5.17;;;4.77;;
16407;SDS011;8313;49.894;8.084;2023-05-20T07:32:45;6.90;;;5.50;;
16407;SDS011;8313;49.894;8.084;2023-05-20T07:35:11;6.00;;;4.90;;
16407;SDS011;8313;49.894;8.084;2023-05-20T07:37:37;5.40;;;4.90;;
16407;SDS011;8313;49.894;8.084;2023-05-20T07:40:04;8.27;;;5.47;;
16407;SDS011;8313;49.894;8.084;2023-05-20T07:42:31;5.80;;;5.20;;
16407;SDS011;8313;49.894;8.084;2023-05-20T07:44:59;6.20;;;5.00;;
16407;SDS011;8313;49.894;8.084;2023-05-20T07:47:25;5.30;;;4.80;;
16407;SDS011;8313;49.894;8.084;2023-05-20T07:49:51;7.17;;;5.70;;
16407;SDS011;8313;49.894;8.084;2023-05-20T07:52:17;6.63;;;5.93;;
16407;SDS011;8313;49.894;8.084;2023-05-20T07:54:43;5.63;;;5.13;;
16407;SDS011;8313;49.894;8.084;2023-05-20T07:57:10;7.37;;;5.40;;
16407;SDS011;8313;49.894;8.084;2023-05-20T07:59:36;5.90;;;5.30;;
16407;SDS011;8313;49.894;8.084;2023-05-20T08:02:01;7.07;;;5.50;;
16407;SDS011;8313;49.894;8.084;2023-05-20T08:04:27;6.77;;;6.07;;
16407;SDS011;8313;49.894;8.084;2023-05-20T08:06:54;5.30;;;4.80;;
16407;SDS011;8313;49.894;8.084;2023-05-20T08:09:30;8.27;;;5.20;;
16407;SDS011;8313;49.894;8.084;2023-05-20T08:11:56;6.57;;;5.97;;
16407;SDS011;8313;49.894;8.084;2023-05-20T08:14:22;8.57;;;5.40;;
16407;SDS011;8313;49.894;8.084;2023-05-20T08:16:50;7.53;;;5.70;;
16407;SDS011;8313;49.894;8.084;2023-05-20T08:19:16;6.60;;;5.90;;
16407;SDS011;8313;49.894;8.084;2023-05-20T08:21:45;6.60;;;5.80;;
16407;SDS011;8313;49.894;8.084;2023-05-20T08:24:11;5.87;;;5.27;;
16407;SDS011;8313;49.894;8.084;2023-05-20T08:26:37;6.47;;;5.20;;
16407;SDS011;8313;49.894;8.084;2023-05-20T08:29:04;5.60;;;5.10;;
16407;SDS011;8313;49.894;8.084;2023-05-20T08:31:30;5.60;;;5.10;;
16407;SDS011;8313;49.894;8.084;2023-05-20T08:33:57;6.77;;;5.87;;
16407;SDS011;8313;49.894;8.084;2023-05-20T08:36:23;7.00;;;6.33;;
16407;SDS011;8313;49.894;8.084;2023-05-20T08:38:49;7.30;;;6.60;;
16407;SDS011;8313;49.894;8.084;2023-05-20T08:41:15;6.80;;;5.67;;
16407;SDS011;8313;49.894;8.084;2023-05-20T08:43:43;6.47;;;5.70;;
16407;SDS011;8313;49.894;8.084;2023-05-20T08:46:09;8.90;;;6.23;;
16407;SDS011;8313;49.894;8.084;2023-05-20T08:48:36;6.07;;;5.57;;
16407;SDS011;8313;49.894;8.084;2023-05-20T08:51:02;6.70;;;5.70;;
16407;SDS011;8313;49.894;8.084;2023-05-20T08:53:29;6.30;;;5.70;;
16407;SDS011;8313;49.894;8.084;2023-05-20T08:55:55;5.97;;;5.40;;
16407;SDS011;8313;49.894;8.084;2023-05-20T08:58:30;6.17;;;5.57;;
16407;SDS011;8313;49.894;8.084;2023-05-20T09:00:59;6.60;;;5.83;;
16407;SDS011;8313;49.894;8.084;2023-05-20T09:03:26;7.80;;;6.47;;
16407;SDS011;8313;49.894;8.084;2023-05-20T09:05:52;7.07;;;6.37;;
16407;SDS011;8313;49.894;8.084;2023-05-20T09:08:18;8.73;;;6.77;;
16407;SDS011;8313;49.894;8.084;2023-05-20T09:10:50;7.67;;;6.67;;
16407;SDS011;8313;49.894;8.084;2023-05-20T09:13:17;6.53;;;5.80;;
16407;SDS011;8313;49.894;8.084;2023-05-20T09:15:43;7.57;;;6.50;;
16407;SDS011;8313;49.894;8.084;2023-05-20T09:18:08;8.23;;;7.10;;
16407;SDS011;8313;49.894;8.084;2023-05-20T09:20:36;7.30;;;6.30;;
16407;SDS011;8313;49.894;8.084;2023-05-20T09:23:03;8.40;;;6.73;;
16407;SDS011;8313;49.894;8.084;2023-05-20T09:25:30;8.40;;;6.90;;
16407;SDS011;8313;49.894;8.084;2023-05-20T09:27:56;7.97;;;6.77;;
16407;SDS011;8313;49.894;8.084;2023-05-20T09:30:22;6.63;;;6.03;;
16407;SDS011;8313;49.894;8.084;2023-05-20T09:32:54;9.33;;;6.40;;
16407;SDS011;8313;49.894;8.084;2023-05-20T09:35:24;6.63;;;6.03;;
16407;SDS011;8313;49.894;8.084;2023-05-20T09:37:51;7.87;;;6.90;;
16407;SDS011;8313;49.894;8.084;2023-05-20T09:40:20;8.90;;;7.67;;
16407;SDS011;8313;49.894;8.084;2023-05-20T09:43:02;7.77;;;6.93;;
16407;SDS011;8313;49.894;8.084;2023-05-20T09:45:29;7.40;;;6.60;;
16407;SDS011;8313;49.894;8.084;2023-05-20T09:47:55;8.33;;;6.50;;
16407;SDS011;8313;49.894;8.084;2023-05-20T09:50:21;9.20;;;7.10;;
16407;SDS011;8313;49.894;8.084;2023-05-20T09:52:49;7.97;;;7.17;;
16407;SDS011;8313;49.894;8.084;2023-05-20T09:55:17;7.37;;;6.67;;
16407;SDS011;8313;49.894;8.084;2023-05-20T09:57:44;7.20;;;6.50;;
16407;SDS011;8313;49.894;8.084;2023-05-20T10:00:11;8.23;;;7.00;;
16407;SDS011;8313;49.894;8.084;2023-05-20T10:02:44;8.67;;;7.77;;
16407;SDS011;8313;49.894;8.084;2023-05-20T10:05:15;7.77;;;6.97;;
16407;SDS011;8313;49.894;8.084;2023-05-20T10:10:46;8.30;;;7.50;;
16407;SDS011;8313;49.894;8.084;2023-05-20T10:15:59;8.73;;;7.90;;
16407;SDS011;8313;49.894;8.084;2023-05-20T10:21:16;8.03;;;7.20;;
16407;SDS011;8313;49.894;8.084;2023-05-20T10:23:43;9.20;;;8.13;;
16407;SDS011;8313;49.894;8.084;2023-05-20T10:26:09;9.57;;;7.60;;
16407;SDS011;8313;49.894;8.084;2023-05-20T10:28:35;7.73;;;7.03;;
16407;SDS011;8313;49.894;8.084;2023-05-20T10:31:02;7.83;;;6.67;;
16407;SDS011;8313;49.894;8.084;2023-05-20T10:33:44;8.27;;;7.07;;
16407;SDS011;8313;49.894;8.084;2023-05-20T10:36:27;7.83;;;7.03;;
16407;SDS011;8313;49.894;8.084;2023-05-20T10:38:56;8.77;;;7.00;;
16407;SDS011;8313;49.894;8.084;2023-05-20T10:41:24;7.97;;;7.13;;
16407;SDS011;8313;49.894;8.084;2023-05-20T10:44:04;8.20;;;7.40;;
16407;SDS011;8313;49.894;8.084;2023-05-20T10:46:30;7.73;;;6.63;;
16407;SDS011;8313;49.894;8.084;2023-05-20T10:48:57;8.70;;;6.53;;
16407;SDS011;8313;49.894;8.084;2023-05-20T10:51:23;9.33;;;6.83;;
16407;SDS011;8313;49.894;8.084;2023-05-20T10:53:53;8.77;;;6.93;;
16407;SDS011;8313;49.894;8.084;2023-05-20T10:56:23;9.80;;;7.43;;
16407;SDS011;8313;49.894;8.084;2023-05-20T10:58:51;8.37;;;7.30;;
16407;SDS011;8313;49.894;8.084;2023-05-20T11:01:17;7.87;;;7.17;;
16407;SDS011;8313;49.894;8.084;2023-05-20T11:03:47;8.43;;;7.57;;
16407;SDS011;8313;49.894;8.084;2023-05-20T11:06:14;9.43;;;8.47;;
16407;SDS011;8313;49.894;8.084;2023-05-20T11:08:42;8.70;;;7.87;;
16407;SDS011;8313;49.894;8.084;2023-05-20T11:11:10;7.97;;;7.27;;
16407;SDS011;8313;49.894;8.084;2023-05-20T11:13:37;8.17;;;7.33;;
16407;SDS011;8313;49.894;8.084;2023-05-20T11:16:03;8.67;;;7.77;;
16407;SDS011;8313;49.894;8.084;2023-05-20T11:18:29;8.77;;;7.93;;
16407;SDS011;8313;49.894;8.084;2023-05-20T11:20:59;7.00;;;6.40;;
16407;SDS011;8313;49.894;8.084;2023-05-20T11:23:26;8.77;;;7.30;;
16407;SDS011;8313;49.894;8.084;2023-05-20T11:25:53;8.80;;;8.00;;
16407;SDS011;8313;49.894;8.084;2023-05-20T11:28:20;6.90;;;6.30;;
16407;SDS011;8313;49.894;8.084;2023-05-20T11:30:47;7.17;;;6.47;;
16407;SDS011;8313;49.894;8.084;2023-05-20T11:33:14;8.73;;;7.43;;
16407;SDS011;8313;49.894;8.084;2023-05-20T11:35:48;8.70;;;7.63;;
16407;SDS011;8313;49.894;8.084;2023-05-20T11:38:14;8.47;;;7.33;;
16407;SDS011;8313;49.894;8.084;2023-05-20T11:40:44;7.63;;;6.93;;
16407;SDS011;8313;49.894;8.084;2023-05-20T11:43:12;15.15;;;7.40;;
16407;SDS011;8313;49.894;8.084;2023-05-20T11:45:39;8.00;;;7.30;;
16407;SDS011;8313;49.894;8.084;2023-05-20T11:48:06;8.57;;;7.73;;
16407;SDS011;8313;49.894;8.084;2023-05-20T11:50:33;8.47;;;7.20;;
16407;SDS011;8313;49.894;8.084;2023-05-20T11:53:04;8.10;;;7.30;;
16407;SDS011;8313;49.894;8.084;2023-05-20T11:55:43;7.73;;;6.80;;
16407;SDS011;8313;49.894;8.084;2023-05-20T11:58:10;7.83;;;7.13;;
16407;SDS011;8313;49.894;8.084;2023-05-20T12:00:39;9.30;;;7.20;;
16407;SDS011;8313;49.894;8.084;2023-05-20T12:03:05;7.73;;;6.93;;
16407;SDS011;8313;49.894;8.084;2023-05-20T12:05:30;7.67;;;6.87;;
16407;SDS011;8313;49.894;8.084;2023-05-20T12:07:56;7.40;;;6.80;;
16407;SDS011;8313;49.894;8.084;2023-05-20T12:10:21;7.80;;;7.07;;
16407;SDS011;8313;49.894;8.084;2023-05-20T12:12:47;8.80;;;7.37;;
16407;SDS011;8313;49.894;8.084;2023-05-20T12:15:13;7.50;;;6.90;;
16407;SDS011;8313;49.894;8.084;2023-05-20T12:17:48;7.30;;;6.63;;
16407;SDS011;8313;49.894;8.084;2023-05-20T12:20:16;10.23;;;7.50;;
16407;SDS011;8313;49.894;8.084;2023-05-20T12:22:43;7.10;;;6.50;;
16407;SDS011;8313;49.894;8.084;2023-05-20T12:25:12;8.47;;;7.63;;
16407;SDS011;8313;49.894;8.084;2023-05-20T12:27:40;9.57;;;8.60;;
16407;SDS011;8313;49.894;8.084;2023-05-20T12:30:07;9.93;;;7.77;;
16407;SDS011;8313;49.894;8.084;2023-05-20T12:32:36;10.93;;;7.50;;
16407;SDS011;8313;49.894;8.084;2023-05-20T12:35:03;8.30;;;7.43;;
16407;SDS011;8313;49.894;8.084;2023-05-20T12:37:29;8.17;;;7.30;;
16407;SDS011;8313;49.894;8.084;2023-05-20T12:39:55;9.03;;;6.97;;
16407;SDS011;8313;49.894;8.084;2023-05-20T12:42:20;7.67;;;6.97;;
16407;SDS011;8313;49.894;8.084;2023-05-20T12:44:46;9.33;;;7.87;;
16407;SDS011;8313;49.894;8.084;2023-05-20T12:47:11;8.60;;;7.47;;
16407;SDS011;8313;49.894;8.084;2023-05-20T12:49:37;7.90;;;7.10;;
16407;SDS011;8313;49.894;8.084;2023-05-20T12:52:03;9.60;;;7.77;;
16407;SDS011;8313;49.894;8.084;2023-05-20T12:54:29;8.27;;;7.57;;
16407;SDS011;8313;49.894;8.084;2023-05-20T12:56:55;7.10;;;6.40;;
16407;SDS011;8313;49.894;8.084;2023-05-20T12:59:21;8.03;;;6.80;;
16407;SDS011;8313;49.894;8.084;2023-05-20T13:01:47;8.13;;;7.33;;
16407;SDS011;8313;49.894;8.084;2023-05-20T13:04:13;8.27;;;7.40;;
16407;SDS011;8313;49.894;8.084;2023-05-20T13:06:38;9.50;;;8.30;;
16407;SDS011;8313;49.894;8.084;2023-05-20T13:09:04;8.87;;;7.77;;
16407;SDS011;8313;49.894;8.084;2023-05-20T13:11:30;9.83;;;7.37;;
16407;SDS011;8313;49.894;8.084;2023-05-20T13:13:56;9.33;;;6.87;;
16407;SDS011;8313;49.894;8.084;2023-05-20T13:16:22;10.10;;;7.17;;
16407;SDS011;8313;49.894;8.084;2023-05-20T13:18:48;8.80;;;7.97;;
16407;SDS011;8313;49.894;8.084;2023-05-20T13:21:14;7.27;;;6.43;;
16407;SDS011;8313;49.894;8.084;2023-05-20T13:23:40;8.10;;;7.30;;
16407;SDS011;8313;49.894;8.084;2023-05-20T13:26:06;8.90;;;7.50;;
16407;SDS011;8313;49.894;8.084;2023-05-20T13:28:33;7.93;;;7.13;;
16407;SDS011;8313;49.894;8.084;2023-05-20T13:31:00;7.47;;;6.73;;
16407;SDS011;8313;49.894;8.084;2023-05-20T13:33:27;7.10;;;6.40;;
16407;SDS011;8313;49.894;8.084;2023-05-20T13:35:52;8.10;;;7.33;;
16407;SDS011;8313;49.894;8.084;2023-05-20T13:38:18;7.97;;;6.70;;
16407;SDS011;8313;49.894;8.084;2023-05-20T13:40:44;8.30;;;7.50;;
16407;SDS011;8313;49.894;8.084;2023-05-20T13:43:09;8.67;;;7.17;;
16407;SDS011;8313;49.894;8.084;2023-05-20T13:45:35;8.67;;;7.77;;
16407;SDS011;8313;49.894;8.084;2023-05-20T13:48:01;8.57;;;7.80;;
16407;SDS011;8313;49.894;8.084;2023-05-20T13:50:27;7.60;;;6.90;;
16407;SDS011;8313;49.894;8.084;2023-05-20T13:52:52;8.17;;;7.20;;
16407;SDS011;8313;49.894;8.084;2023-05-20T13:55:18;7.87;;;7.13;;
16407;SDS011;8313;49.894;8.084;2023-05-20T13:57:44;7.70;;;7.00;;
16407;SDS011;8313;49.894;8.084;2023-05-20T14:00:10;8.03;;;7.20;;
16407;SDS011;8313;49.894;8.084;2023-05-20T14:02:36;7.77;;;7.03;;
16407;SDS011;8313;49.894;8.084;2023-05-20T14:05:02;8.50;;;7.60;;
16407;SDS011;8313;49.894;8.084;2023-05-20T14:07:27;10.20;;;7.90;;
16407;SDS011;8313;49.894;8.084;2023-05-20T14:09:53;8.67;;;7.40;;
16407;SDS011;8313;49.894;8.084;2023-05-20T14:12:19;9.03;;;8.00;;
16407;SDS011;8313;49.894;8.084;2023-05-20T14:14:46;8.03;;;7.13;;
16407;SDS011;8313;49.894;8.084;2023-05-20T14:17:12;8.40;;;7.43;;
16407;SDS011;8313;49.894;8.084;2023-05-20T14:19:38;8.93;;;7.03;;
16407;SDS011;8313;49.894;8.084;2023-05-20T14:22:03;10.63;;;8.80;;
16407;SDS011;8313;49.894;8.084;2023-05-20T14:24:29;8.87;;;8.00;;
16407;SDS011;8313;49.894;8.084;2023-05-20T14:26:55;8.60;;;7.70;;
16407;SDS011;8313;49.894;8.084;2023-05-20T14:29:20;9.27;;;8.40;;
16407;SDS011;8313;49.894;8.084;2023-05-20T14:31:46;8.77;;;7.87;;
16407;SDS011;8313;49.894;8.084;2023-05-20T14:34:12;8.53;;;7.60;;
16407;SDS011;8313;49.894;8.084;2023-05-20T14:36:37;9.73;;;8.83;;
16407;SDS011;8313;49.894;8.084;2023-05-20T14:39:03;10.50;;;7.97;;
16407;SDS011;8313;49.894;8.084;2023-05-20T14:41:29;8.13;;;7.33;;
16407;SDS011;8313;49.894;8.084;2023-05-20T14:43:55;10.73;;;7.70;;
16407;SDS011;8313;49.894;8.084;2023-05-20T14:46:20;8.90;;;8.00;;
16407;SDS011;8313;49.894;8.084;2023-05-20T14:48:46;9.33;;;7.50;;
16407;SDS011;8313;49.894;8.084;2023-05-20T14:51:11;8.70;;;7.80;;
16407;SDS011;8313;49.894;8.084;2023-05-20T14:53:37;8.83;;;8.00;;
16407;SDS011;8313;49.894;8.084;2023-05-20T14:56:06;9.60;;;8.70;;
16407;SDS011;8313;49.894;8.084;2023-05-20T14:58:31;9.60;;;8.70;;
16407;SDS011;8313;49.894;8.084;2023-05-20T15:00:57;9.03;;;8.07;;
16407;SDS011;8313;49.894;8.084;2023-05-20T15:03:23;8.50;;;7.70;;
16407;SDS011;8313;49.894;8.084;2023-05-20T15:05:48;9.07;;;8.20;;
16407;SDS011;8313;49.894;8.084;2023-05-20T15:08:14;8.60;;;7.80;;